Terminal Aerodrome Forecast
Issued by NWS

Home | Current Version | Previous Version | Text Only | Print | Product List | Glossary On
Versions: 1 2 3 4 5 6 7 8 9 10 11 12
000
FTUS45 KGJT 172322
TAFDRO
TAF
KDRO 172322Z 1800/1824 25011G16KT P6SM SCT110 SCT150
     FM180200 30006KT P6SM FEW250
     FM180400 17004KT P6SM FEW250
     FM181700 15004KT P6SM FEW250
     FM181900 24004KT P6SM SCT250=

USA.gov is the U.S. government's official web portal to all federal, state and local government web resources and services.